createdAt,value
2019-02-26T00:00:14.421Z,4.60
2019-02-26T00:02:41.498Z,4.40
2019-02-26T00:05:08.331Z,4.33
2019-02-26T00:07:35.119Z,4.30
2019-02-26T00:10:04.462Z,3.87
2019-02-26T00:12:30.991Z,4.10
2019-02-26T00:15:02.391Z,4.43
2019-02-26T00:17:28.296Z,3.80
2019-02-26T00:19:56.210Z,4.80
2019-02-26T00:22:23.053Z,4.60
2019-02-26T00:24:50.123Z,5.23
2019-02-26T00:27:16.862Z,5.17
2019-02-26T00:29:46.461Z,4.27
2019-02-26T00:32:16.158Z,4.40
2019-02-26T00:34:43.489Z,4.77
2019-02-26T00:37:10.236Z,4.87
2019-02-26T00:39:36.955Z,4.97
2019-02-26T00:42:05.202Z,5.20
2019-02-26T00:44:34.578Z,4.63
2019-02-26T00:47:02.582Z,4.50
2019-02-26T00:49:30.258Z,4.87
2019-02-26T00:51:57.130Z,4.00
2019-02-26T00:54:24.512Z,4.00
2019-02-26T00:56:52.512Z,4.00
2019-02-26T00:59:19.414Z,4.10
2019-02-26T01:01:48.134Z,3.90
2019-02-26T01:04:16.566Z,3.60
2019-02-26T01:06:43.312Z,3.70
2019-02-26T01:09:12.564Z,3.50
2019-02-26T01:11:39.295Z,3.20
2019-02-26T01:14:06.032Z,4.00
2019-02-26T01:16:32.800Z,4.10
2019-02-26T01:18:59.584Z,4.10
2019-02-26T01:21:28.521Z,4.13
2019-02-26T01:23:56.610Z,3.83
2019-02-26T01:26:27.347Z,3.93
2019-02-26T01:28:53.744Z,3.63
2019-02-26T01:31:22.438Z,4.23
2019-02-26T01:33:52.894Z,3.87
2019-02-26T01:36:21.479Z,4.30
2019-02-26T01:38:49.164Z,3.83
2019-02-26T01:41:18.096Z,3.93
2019-02-26T01:43:45.581Z,3.80
2019-02-26T01:46:16.920Z,4.20
2019-02-26T01:48:43.902Z,4.40
2019-02-26T01:51:10.692Z,4.37
2019-02-26T01:53:37.428Z,4.40
2019-02-26T01:56:05.095Z,4.10
2019-02-26T01:58:33.576Z,3.87
2019-02-26T02:01:00.769Z,4.53
2019-02-26T02:03:28.413Z,4.83
2019-02-26T02:05:56.347Z,4.10
2019-02-26T02:08:24.966Z,4.20
2019-02-26T02:10:57.150Z,4.60
2019-02-26T02:13:25.939Z,4.80
2019-02-26T02:15:53.277Z,4.23
2019-02-26T02:18:22.458Z,4.77
2019-02-26T02:20:48.708Z,4.17
2019-02-26T02:23:15.747Z,3.47
2019-02-26T02:25:43.422Z,3.50
2019-02-26T02:28:11.225Z,3.83
2019-02-26T02:30:39.034Z,3.93
2019-02-26T02:33:05.932Z,4.43
2019-02-26T02:35:32.653Z,4.20
2019-02-26T02:38:02.116Z,3.57
2019-02-26T02:40:28.814Z,4.53
2019-02-26T02:42:55.556Z,3.97
2019-02-26T02:45:24.286Z,4.50
2019-02-26T02:47:54.780Z,4.50
2019-02-26T02:50:19.633Z,5.10
2019-02-26T02:52:46.593Z,4.27
2019-02-26T02:55:16.531Z,3.87
2019-02-26T02:57:41.977Z,4.07
2019-02-26T03:00:10.010Z,4.50
2019-02-26T03:02:40.582Z,4.37
2019-02-26T03:05:06.160Z,4.20
2019-02-26T03:07:32.886Z,3.63
2019-02-26T03:10:06.242Z,4.00
2019-02-26T03:12:32.247Z,4.60
2019-02-26T03:15:02.098Z,4.57
2019-02-26T03:17:27.841Z,4.77
2019-02-26T03:19:56.020Z,4.57
2019-02-26T03:22:23.203Z,4.30
2019-02-26T03:24:51.349Z,4.90
2019-02-26T03:27:18.553Z,4.67
2019-02-26T03:29:47.328Z,3.97
2019-02-26T03:32:14.292Z,4.30
2019-02-26T03:34:41.027Z,4.30
2019-02-26T03:37:10.916Z,4.20
2019-02-26T03:39:38.140Z,4.10
2019-02-26T03:42:04.875Z,4.30
2019-02-26T03:44:33.891Z,4.40
2019-02-26T03:47:01.012Z,4.20
2019-02-26T03:49:27.779Z,4.03
2019-02-26T03:51:59.239Z,4.33
2019-02-26T03:54:23.150Z,4.50
2019-02-26T03:56:49.854Z,4.70
2019-02-26T03:59:16.578Z,4.03
2019-02-26T04:01:43.310Z,4.10
2019-02-26T04:04:10.035Z,4.07
2019-02-26T04:06:38.926Z,4.30
2019-02-26T04:09:05.847Z,4.23
2019-02-26T04:11:32.594Z,4.00
2019-02-26T04:13:59.319Z,4.20
2019-02-26T04:16:26.359Z,3.60
2019-02-26T04:18:53.219Z,4.20
2019-02-26T04:21:22.334Z,3.80
2019-02-26T04:23:50.428Z,3.90
2019-02-26T04:26:41.100Z,4.40
2019-02-26T04:29:40.790Z,3.70
2019-02-26T04:32:48.826Z,3.90
2019-02-26T04:35:21.004Z,4.13
2019-02-26T04:38:39.171Z,4.03
2019-02-26T04:41:24.241Z,3.47
2019-02-26T04:44:07.865Z,3.73
2019-02-26T04:46:53.792Z,4.00
2019-02-26T04:49:20.370Z,3.93
2019-02-26T04:51:48.487Z,3.50
2019-02-26T04:54:21.197Z,4.07
2019-02-26T04:56:45.113Z,4.10
2019-02-26T04:59:15.034Z,4.00
2019-02-26T05:01:44.111Z,3.53
2019-02-26T05:04:10.663Z,4.03
2019-02-26T05:06:37.401Z,3.57
2019-02-26T05:09:05.557Z,4.07
2019-02-26T05:11:37.215Z,3.97
2019-02-26T05:14:02.002Z,3.60
2019-02-26T05:16:31.657Z,4.00
2019-02-26T05:18:58.469Z,3.87
2019-02-26T05:21:27.187Z,4.13
2019-02-26T05:23:55.110Z,4.17
2019-02-26T05:26:22.592Z,4.30
2019-02-26T05:28:51.467Z,4.17
2019-02-26T05:31:17.995Z,4.30
2019-02-26T05:33:46.837Z,4.30
2019-02-26T05:36:15.079Z,4.97
2019-02-26T05:38:42.007Z,4.40
2019-02-26T05:41:08.823Z,4.60
2019-02-26T05:43:35.577Z,4.40
2019-02-26T05:46:03.959Z,4.17
2019-02-26T05:48:30.963Z,3.93
2019-02-26T05:51:00.047Z,3.87
2019-02-26T05:53:26.317Z,4.17
2019-02-26T05:55:54.056Z,4.53
2019-02-26T05:58:21.688Z,4.77
2019-02-26T06:00:48.399Z,4.33
2019-02-26T06:03:17.920Z,4.47
2019-02-26T06:05:49.026Z,4.17
2019-02-26T06:08:14.970Z,4.70
2019-02-26T06:10:41.679Z,4.83
2019-02-26T06:13:10.705Z,4.50
2019-02-26T06:15:37.033Z,4.80
2019-02-26T06:18:04.088Z,3.53
2019-02-26T06:20:32.189Z,4.33
2019-02-26T06:22:59.573Z,3.80
2019-02-26T06:25:26.288Z,4.70
2019-02-26T06:27:53.063Z,4.47
2019-02-26T06:30:19.785Z,4.33
2019-02-26T06:32:46.524Z,4.70
2019-02-26T06:35:16.072Z,4.53
2019-02-26T06:37:45.579Z,4.40
2019-02-26T06:40:12.805Z,4.47
2019-02-26T06:42:40.341Z,4.63
2019-02-26T06:45:13.244Z,4.80
2019-02-26T06:47:39.903Z,4.73
2019-02-26T06:50:10.545Z,4.50
2019-02-26T06:52:39.928Z,4.93
2019-02-26T06:55:09.474Z,4.83
2019-02-26T06:57:36.506Z,4.70
2019-02-26T07:00:04.379Z,4.27
2019-02-26T07:02:33.055Z,4.43
2019-02-26T07:04:59.788Z,5.00
2019-02-26T07:07:26.515Z,4.73
2019-02-26T07:09:53.260Z,4.67
2019-02-26T07:12:22.183Z,5.27
2019-02-26T07:14:51.316Z,5.40
2019-02-26T07:17:20.697Z,4.93
2019-02-26T07:19:47.446Z,5.60
2019-02-26T07:22:16.504Z,5.60
2019-02-26T07:24:46.387Z,5.20
2019-02-26T07:27:17.846Z,5.50
2019-02-26T07:29:47.438Z,5.07
2019-02-26T07:32:14.752Z,5.47
2019-02-26T07:34:45.220Z,4.60
2019-02-26T07:37:15.764Z,4.67
2019-02-26T07:39:44.248Z,5.10
2019-02-26T07:42:14.039Z,5.07
2019-02-26T07:44:41.841Z,5.40
2019-02-26T07:47:11.147Z,5.40
2019-02-26T07:49:37.374Z,5.63
2019-02-26T07:52:08.749Z,5.80
2019-02-26T07:54:37.810Z,4.80
2019-02-26T07:57:09.261Z,4.80
2019-02-26T07:59:39.308Z,4.80
2019-02-26T08:02:11.339Z,5.27
2019-02-26T08:04:41.239Z,6.07
2019-02-26T08:07:08.033Z,5.00
2019-02-26T08:09:34.875Z,4.70
2019-02-26T08:12:04.357Z,4.60
2019-02-26T08:14:33.462Z,4.27
2019-02-26T08:17:03.943Z,4.80
2019-02-26T08:19:31.202Z,5.07
2019-02-26T08:22:01.130Z,5.03
2019-02-26T08:24:27.992Z,5.30
2019-02-26T08:26:54.888Z,4.90
2019-02-26T08:29:24.594Z,5.40
2019-02-26T08:31:55.052Z,5.10
2019-02-26T08:34:23.012Z,5.33
2019-02-26T08:36:49.796Z,5.33
2019-02-26T08:39:16.508Z,5.63
2019-02-26T08:42:04.643Z,5.23
2019-02-26T08:44:31.797Z,5.03
2019-02-26T08:46:58.554Z,5.40
2019-02-26T08:49:25.371Z,5.40
2019-02-26T08:52:10.699Z,5.87
2019-02-26T08:54:35.822Z,5.87
2019-02-26T08:57:03.359Z,7.50
2019-02-26T08:59:30.165Z,6.73
2019-02-26T09:02:01.076Z,6.27
2019-02-26T09:04:27.854Z,7.63
2019-02-26T09:06:55.448Z,6.70
2019-02-26T09:09:25.345Z,6.60
2019-02-26T09:11:57.995Z,6.87
2019-02-26T09:14:27.102Z,7.23
2019-02-26T09:16:54.960Z,6.80
2019-02-26T09:19:30.197Z,6.90
2019-02-26T09:21:56.898Z,7.37
2019-02-26T09:24:23.667Z,7.10
2019-02-26T09:26:52.114Z,7.17
2019-02-26T09:29:19.757Z,7.87
2019-02-26T09:31:51.116Z,8.10
2019-02-26T09:34:19.949Z,8.40
2019-02-26T09:36:50.661Z,9.00
2019-02-26T09:39:16.400Z,8.10
2019-02-26T09:41:45.433Z,9.70
2019-02-26T09:44:11.898Z,7.50
2019-02-26T09:46:39.371Z,10.73
2019-02-26T09:49:11.842Z,8.83
2019-02-26T09:51:39.965Z,7.70
2019-02-26T09:54:13.224Z,7.73
2019-02-26T09:56:40.013Z,8.30
2019-02-26T09:59:14.772Z,7.77
2019-02-26T10:01:42.844Z,7.47
2019-02-26T10:04:09.834Z,9.03
2019-02-26T10:06:37.948Z,8.20
2019-02-26T10:09:05.649Z,7.43
2019-02-26T10:11:32.604Z,8.10
2019-02-26T10:13:59.388Z,8.97
2019-02-26T10:16:28.141Z,8.37
2019-02-26T10:18:56.762Z,8.63
2019-02-26T10:21:23.512Z,8.20
2019-02-26T10:23:52.179Z,8.00
2019-02-26T10:26:21.306Z,8.67
2019-02-26T10:28:53.582Z,8.00
2019-02-26T10:31:23.953Z,7.80
2019-02-26T10:33:50.740Z,7.80
2019-02-26T10:36:18.438Z,7.50
2019-02-26T10:38:45.800Z,6.20
2019-02-26T10:41:12.665Z,5.50
2019-02-26T10:43:40.895Z,6.33
2019-02-26T10:46:07.994Z,5.77
2019-02-26T10:48:34.751Z,5.50
2019-02-26T10:51:06.070Z,5.37
2019-02-26T10:53:30.230Z,6.27
2019-02-26T10:56:00.160Z,4.23
2019-02-26T10:58:27.162Z,5.23
2019-02-26T11:00:55.706Z,4.80
2019-02-26T11:03:24.640Z,4.67
2019-02-26T11:05:52.333Z,5.00
2019-02-26T11:08:26.181Z,4.00
2019-02-26T11:10:52.422Z,5.83
2019-02-26T11:13:20.952Z,3.80
2019-02-26T11:15:48.917Z,3.97
2019-02-26T11:18:18.116Z,3.60
2019-02-26T11:20:47.761Z,4.70
2019-02-26T11:23:16.095Z,3.30
2019-02-26T11:25:43.368Z,5.20
2019-02-26T11:28:12.838Z,3.00
2019-02-26T11:30:39.345Z,2.30
2019-02-26T11:33:08.603Z,1.90
2019-02-26T11:35:34.936Z,2.60
2019-02-26T11:38:01.694Z,2.80
2019-02-26T11:40:31.115Z,2.73
2019-02-26T11:43:00.180Z,2.43
2019-02-26T11:45:26.961Z,1.90
2019-02-26T11:47:55.785Z,1.70
2019-02-26T11:50:27.107Z,1.87
2019-02-26T11:52:54.251Z,1.60
2019-02-26T11:55:19.639Z,1.80
2019-02-26T11:57:47.923Z,2.30
2019-02-26T12:00:25.353Z,1.90
2019-02-26T12:02:50.201Z,1.77
2019-02-26T12:05:18.868Z,2.47
2019-02-26T12:07:46.224Z,2.20
2019-02-26T12:10:14.783Z,1.20
2019-02-26T12:12:41.577Z,1.80
2019-02-26T12:15:12.411Z,1.70
2019-02-26T12:17:41.973Z,2.60
2019-02-26T12:20:14.774Z,2.60
2019-02-26T12:22:44.524Z,3.30
2019-02-26T12:25:11.226Z,3.23
2019-02-26T12:27:39.041Z,2.70
2019-02-26T12:30:13.355Z,3.20
2019-02-26T12:32:41.689Z,2.83
2019-02-26T12:35:11.974Z,4.20
2019-02-26T12:37:39.730Z,3.10
2019-02-26T12:40:10.327Z,3.20
2019-02-26T12:42:36.622Z,3.97
2019-02-26T12:45:07.831Z,4.10
2019-02-26T12:47:43.017Z,2.57
2019-02-26T12:50:12.557Z,4.17
2019-02-26T12:52:39.244Z,3.70
2019-02-26T12:55:08.143Z,4.87
2019-02-26T12:57:34.998Z,3.77
2019-02-26T13:00:01.789Z,2.90
2019-02-26T13:02:28.551Z,4.20
2019-02-26T13:04:55.638Z,4.30
2019-02-26T13:07:22.519Z,3.73
2019-02-26T13:09:51.998Z,4.03
2019-02-26T13:12:20.564Z,4.10
2019-02-26T13:14:50.162Z,3.33
2019-02-26T13:17:21.020Z,2.90
2019-02-26T13:19:49.262Z,3.00
2019-02-26T13:22:17.982Z,2.83
2019-02-26T13:24:45.731Z,3.30
2019-02-26T13:27:12.871Z,3.30
2019-02-26T13:29:53.466Z,4.57
2019-02-26T13:32:17.215Z,4.73
2019-02-26T13:34:42.070Z,3.87
2019-02-26T13:37:08.846Z,3.20
2019-02-26T13:39:38.382Z,3.13
2019-02-26T13:44:33.560Z,4.87
2019-02-26T13:47:05.085Z,3.50
2019-02-26T13:49:32.053Z,3.80
2019-02-26T13:51:59.325Z,3.00
2019-02-26T13:54:26.063Z,5.70
2019-02-26T13:56:52.798Z,3.80
2019-02-26T13:59:19.521Z,3.53
2019-02-26T14:01:46.278Z,3.23
2019-02-26T14:04:13.229Z,3.70
2019-02-26T14:06:42.370Z,3.40
2019-02-26T14:09:09.667Z,3.00
2019-02-26T14:11:36.414Z,3.03
2019-02-26T14:14:03.201Z,4.10
2019-02-26T14:16:33.045Z,3.17
2019-02-26T14:19:00.629Z,3.20
2019-02-26T14:21:30.543Z,3.63
2019-02-26T14:23:57.628Z,4.10
2019-02-26T14:26:24.468Z,3.50
2019-02-26T14:28:51.473Z,3.07
2019-02-26T14:31:20.460Z,3.40
2019-02-26T14:33:47.152Z,3.60
2019-02-26T14:36:14.163Z,3.70
2019-02-26T14:38:40.979Z,3.50
2019-02-26T14:41:07.740Z,3.40
2019-02-26T14:43:34.814Z,3.77
2019-02-26T14:46:04.549Z,3.97
2019-02-26T14:48:31.277Z,3.80
2019-02-26T14:50:58.052Z,3.80
2019-02-26T14:53:24.799Z,3.20
2019-02-26T14:55:53.130Z,4.23
2019-02-26T14:58:20.104Z,3.93
2019-02-26T15:00:57.178Z,3.70
2019-02-26T15:03:18.548Z,3.27
2019-02-26T15:05:45.528Z,3.10
2019-02-26T15:08:15.379Z,3.73
2019-02-26T15:10:42.082Z,3.33
2019-02-26T15:13:09.580Z,3.40
2019-02-26T15:15:38.987Z,3.57
2019-02-26T15:18:09.758Z,2.93
2019-02-26T15:20:36.498Z,3.60
2019-02-26T15:23:06.257Z,2.70
2019-02-26T15:25:37.145Z,2.90
2019-02-26T15:28:05.582Z,3.27
2019-02-26T15:30:32.607Z,3.57
2019-02-26T15:33:10.543Z,3.77
2019-02-26T15:35:33.625Z,5.40
2019-02-26T15:38:03.384Z,3.90
2019-02-26T15:40:30.197Z,5.33
2019-02-26T15:42:59.577Z,4.27
2019-02-26T15:45:28.899Z,3.83
2019-02-26T15:47:55.161Z,3.27
2019-02-26T15:50:24.586Z,3.10
2019-02-26T15:52:53.641Z,4.27
2019-02-26T15:55:23.135Z,3.83
2019-02-26T15:57:53.003Z,4.10
2019-02-26T16:00:20.128Z,6.40
2019-02-26T16:02:48.163Z,4.60
2019-02-26T16:05:17.254Z,4.30
2019-02-26T16:07:46.343Z,3.50
2019-02-26T16:10:15.040Z,4.10
2019-02-26T16:12:42.574Z,3.83
2019-02-26T16:15:10.238Z,3.97
2019-02-26T16:17:36.985Z,3.37
2019-02-26T16:20:08.965Z,3.07
2019-02-26T16:22:35.700Z,3.63
2019-02-26T16:25:02.482Z,3.83
2019-02-26T16:27:37.514Z,4.20
2019-02-26T16:30:03.509Z,3.67
2019-02-26T16:32:30.253Z,3.80
2019-02-26T16:34:57.120Z,3.50
2019-02-26T16:37:24.319Z,3.70
2019-02-26T16:39:51.049Z,3.63
2019-02-26T16:42:18.062Z,4.70
2019-02-26T16:44:45.201Z,5.03
2019-02-26T16:47:14.639Z,4.00
2019-02-26T16:49:47.241Z,3.77
2019-02-26T16:52:17.827Z,3.50
2019-02-26T16:54:44.796Z,3.33
2019-02-26T16:57:11.527Z,3.60
2019-02-26T16:59:40.873Z,3.53
2019-02-26T17:02:08.773Z,3.70
2019-02-26T17:04:35.599Z,3.80
2019-02-26T17:07:02.431Z,3.07
2019-02-26T17:09:29.731Z,3.67
2019-02-26T17:12:04.577Z,4.03
2019-02-26T17:14:34.566Z,3.77
2019-02-26T17:17:03.917Z,4.43
2019-02-26T17:19:34.549Z,3.57
2019-02-26T17:22:04.543Z,3.27
2019-02-26T17:24:33.131Z,3.40
2019-02-26T17:27:00.233Z,3.90
2019-02-26T17:29:27.345Z,3.60
2019-02-26T17:31:54.091Z,4.53
2019-02-26T17:34:24.563Z,5.83
2019-02-26T17:36:51.312Z,7.23
2019-02-26T17:39:23.638Z,6.50
2019-02-26T17:41:50.008Z,5.90
2019-02-26T17:44:20.626Z,4.67
2019-02-26T17:46:51.098Z,3.70
2019-02-26T17:49:18.086Z,3.43
2019-02-26T17:51:45.764Z,4.00
2019-02-26T17:54:13.022Z,3.90
2019-02-26T17:56:43.671Z,4.13
2019-02-26T17:59:16.554Z,4.30
2019-02-26T18:01:44.772Z,3.43
2019-02-26T18:04:11.761Z,3.27
2019-02-26T18:06:41.554Z,2.90
2019-02-26T18:09:08.746Z,3.20
2019-02-26T18:11:36.577Z,3.17
2019-02-26T18:14:05.316Z,3.40
2019-02-26T18:16:35.898Z,3.90
2019-02-26T18:19:02.878Z,4.27
2019-02-26T18:21:36.914Z,5.20
2019-02-26T18:24:03.750Z,5.30
2019-02-26T18:26:30.503Z,5.47
2019-02-26T18:28:57.660Z,5.53
2019-02-26T18:31:26.640Z,4.70
2019-02-26T18:33:55.781Z,4.60
2019-02-26T18:36:22.652Z,4.80
2019-02-26T18:38:53.862Z,5.43
2019-02-26T18:41:24.807Z,4.27
2019-02-26T18:43:54.397Z,3.10
2019-02-26T18:46:22.565Z,3.30
2019-02-26T18:48:49.514Z,3.10
2019-02-26T18:51:16.570Z,2.60
2019-02-26T18:53:44.589Z,3.07
2019-02-26T18:56:12.268Z,2.40
2019-02-26T18:58:39.151Z,3.00
2019-02-26T19:01:07.672Z,3.43
2019-02-26T19:03:34.652Z,3.60
2019-02-26T19:06:01.412Z,4.10
2019-02-26T19:08:28.252Z,3.50
2019-02-26T19:10:54.991Z,2.97
2019-02-26T19:13:21.826Z,2.57
2019-02-26T19:15:52.072Z,3.27
2019-02-26T19:18:18.855Z,3.03
2019-02-26T19:20:48.851Z,2.73
2019-02-26T19:23:14.305Z,2.93
2019-02-26T19:25:41.608Z,2.70
2019-02-26T19:28:09.897Z,2.60
2019-02-26T19:30:37.507Z,4.20
2019-02-26T19:33:04.464Z,2.80
2019-02-26T19:35:35.063Z,3.00
2019-02-26T19:38:03.488Z,2.37
2019-02-26T19:40:32.945Z,1.90
2019-02-26T19:43:01.753Z,2.70
2019-02-26T19:45:28.483Z,2.50
2019-02-26T19:47:57.281Z,2.53
2019-02-26T19:50:24.426Z,2.10
2019-02-26T19:52:56.888Z,2.50
2019-02-26T19:55:23.128Z,2.37
2019-02-26T19:57:50.019Z,2.20
2019-02-26T20:00:19.676Z,2.30
2019-02-26T20:02:45.527Z,2.60
2019-02-26T20:05:12.862Z,2.63
2019-02-26T20:07:39.830Z,2.50
2019-02-26T20:10:12.860Z,2.30
2019-02-26T20:12:41.447Z,2.30
2019-02-26T20:15:09.417Z,2.40
2019-02-26T20:17:36.230Z,2.50
2019-02-26T20:20:05.183Z,2.80
2019-02-26T20:22:33.395Z,2.80
2019-02-26T20:25:02.267Z,2.67
2019-02-26T20:27:29.100Z,2.40
2019-02-26T20:29:55.870Z,2.20
2019-02-26T20:32:22.612Z,2.43
2019-02-26T20:34:49.524Z,2.20
2019-02-26T20:37:16.243Z,2.40
2019-02-26T20:39:44.211Z,2.50
2019-02-26T20:42:11.121Z,2.50
2019-02-26T20:44:38.011Z,2.13
2019-02-26T20:47:06.971Z,2.40
2019-02-26T20:49:33.686Z,1.90
2019-02-26T20:52:00.922Z,2.60
2019-02-26T20:54:27.682Z,3.00
2019-02-26T20:56:54.475Z,2.70
2019-02-26T20:59:21.242Z,2.80
2019-02-26T21:01:49.586Z,2.47
2019-02-26T21:04:16.850Z,2.60
2019-02-26T21:06:45.520Z,2.30
2019-02-26T21:09:14.032Z,2.87
2019-02-26T21:11:42.139Z,5.80
2019-02-26T21:14:09.528Z,2.70
2019-02-26T21:16:38.109Z,2.63
2019-02-26T21:19:06.669Z,2.40
2019-02-26T21:21:33.384Z,2.30
2019-02-26T21:24:00.924Z,2.17
2019-02-26T21:26:28.233Z,2.23
2019-02-26T21:28:56.166Z,2.37
2019-02-26T21:31:23.216Z,2.67
2019-02-26T21:33:49.965Z,2.60
2019-02-26T21:36:17.356Z,2.30
2019-02-26T21:38:44.239Z,2.40
2019-02-26T21:41:11.346Z,3.03
2019-02-26T21:43:41.565Z,2.73
2019-02-26T21:46:08.291Z,2.40
2019-02-26T21:48:36.710Z,2.60
2019-02-26T21:51:03.641Z,2.80
2019-02-26T21:53:30.371Z,2.83
2019-02-26T21:55:57.111Z,3.00
2019-02-26T21:58:26.650Z,3.10
2019-02-26T22:00:52.479Z,3.13
2019-02-26T22:03:20.092Z,3.40
2019-02-26T22:05:46.804Z,3.00
2019-02-26T22:08:16.560Z,3.30
2019-02-26T22:10:43.505Z,3.60
2019-02-26T22:13:10.424Z,8.50
2019-02-26T22:15:37.174Z,4.27
2019-02-26T22:18:05.997Z,3.20
2019-02-26T22:20:36.223Z,3.20
2019-02-26T22:23:01.326Z,3.10
2019-02-26T22:25:29.349Z,3.20
2019-02-26T22:27:56.286Z,3.00
2019-02-26T22:30:23.062Z,2.77
2019-02-26T22:32:49.785Z,3.80
2019-02-26T22:35:16.527Z,3.73
2019-02-26T22:37:43.362Z,4.20
2019-02-26T22:40:10.234Z,4.50
2019-02-26T22:42:38.821Z,4.33
2019-02-26T22:45:05.961Z,4.17
2019-02-26T22:47:32.661Z,4.70
2019-02-26T22:49:59.638Z,4.70
2019-02-26T22:52:30.650Z,4.80
2019-02-26T22:54:54.972Z,5.00
2019-02-26T22:57:21.760Z,4.70
2019-02-26T22:59:48.504Z,4.03
2019-02-26T23:02:15.208Z,3.77
2019-02-26T23:04:42.312Z,4.10
2019-02-26T23:07:09.191Z,3.77
2019-02-26T23:09:35.997Z,3.70
2019-02-26T23:12:04.811Z,3.90
2019-02-26T23:14:31.975Z,3.80
2019-02-26T23:16:59.206Z,3.90
2019-02-26T23:19:25.944Z,3.50
2019-02-26T23:21:52.723Z,3.27
2019-02-26T23:24:19.818Z,3.70
2019-02-26T23:26:47.175Z,3.10
2019-02-26T23:29:13.939Z,4.43
2019-02-26T23:31:40.714Z,3.80
2019-02-26T23:34:07.445Z,3.57
2019-02-26T23:36:34.457Z,3.40
2019-02-26T23:39:01.180Z,4.43
2019-02-26T23:41:27.920Z,4.10
2019-02-26T23:43:54.642Z,3.83
2019-02-26T23:46:21.379Z,4.10
2019-02-26T23:48:48.118Z,4.20
2019-02-26T23:51:14.879Z,4.27
2019-02-26T23:53:41.598Z,3.90
2019-02-26T23:56:08.372Z,3.60
2019-02-26T23:58:35.117Z,3.43
